Terminal Aerodrome Forecast
Issued by NWS

Home | Current Version | Previous Version | Text Only | Print | Product List | Glossary On
Versions: 1 2 3 4 5 6 7 8 9 10 11 12 13 14 15 16 17
000
FTUS43 KGRB 281158
TAFCWA
TAF
KCWA 281158Z 2812/2912 21004KT P6SM SCT080 BKN150
     FM281500 21006KT P6SM SCT050 BKN080
     FM281800 21010KT P6SM BKN040 OVC080
      TEMPO 2818/2821 -RA
     FM282100 18005KT P6SM -RA BKN035 OVC070
     FM290000 20007KT 6SM RA BKN022 OVC035
      TEMPO 2902/2906 4SM RA BKN018
     FM290600 VRB03KT 2SM -RA BKN008 OVC015=

USA.gov is the U.S. government's official web portal to all federal, state and local government web resources and services.